createdAt,value
2023-02-07T00:01:10.238Z,9.00
2023-02-07T00:03:37.940Z,9.20
2023-02-07T00:06:09.048Z,9.90
2023-02-07T00:08:37.307Z,9.10
2023-02-07T00:11:10.202Z,9.60
2023-02-07T00:13:37.165Z,8.90
2023-02-07T00:16:05.529Z,8.70
2023-02-07T00:18:33.426Z,8.70
2023-02-07T00:21:05.043Z,8.60
2023-02-07T00:23:32.194Z,8.50
2023-02-07T00:25:58.868Z,9.40
2023-02-07T00:28:25.896Z,8.60
2023-02-07T00:31:07.078Z,9.20
2023-02-07T00:33:37.893Z,8.70
2023-02-07T00:36:06.954Z,8.80
2023-02-07T00:38:33.954Z,8.70
2023-02-07T00:41:01.626Z,8.20
2023-02-07T00:43:31.366Z,8.70
2023-02-07T00:45:59.473Z,7.80
2023-02-07T00:48:27.395Z,7.20
2023-02-07T00:50:54.823Z,8.30
2023-02-07T00:53:22.058Z,8.70
2023-02-07T00:55:48.914Z,8.00
2023-02-07T00:58:15.837Z,8.80
2023-02-07T01:00:42.578Z,8.40
2023-02-07T01:03:09.426Z,8.40
2023-02-07T01:05:36.698Z,8.10
2023-02-07T01:08:09.969Z,8.10
2023-02-07T01:10:39.470Z,9.30
2023-02-07T01:13:06.320Z,7.90
2023-02-07T01:15:40.863Z,7.80
2023-02-07T01:18:08.300Z,8.50
2023-02-07T01:20:37.914Z,8.70
2023-02-07T01:23:05.262Z,8.40
2023-02-07T01:25:32.098Z,9.10
2023-02-07T01:27:59.785Z,8.80
2023-02-07T01:30:26.907Z,8.20
2023-02-07T01:32:53.758Z,8.00
2023-02-07T01:36:12.526Z,8.10
2023-02-07T01:38:39.956Z,9.30
2023-02-07T01:41:07.834Z,8.50
2023-02-07T01:43:34.940Z,8.20
2023-02-07T01:46:01.867Z,7.50
2023-02-07T01:48:31.122Z,8.00
2023-02-07T01:51:03.500Z,8.40
2023-02-07T01:53:30.336Z,8.00
2023-02-07T01:56:00.500Z,8.50
2023-02-07T01:58:27.519Z,8.80
2023-02-07T02:00:55.739Z,8.20
2023-02-07T02:03:22.519Z,8.30
2023-02-07T02:05:49.681Z,9.00
2023-02-07T02:08:16.502Z,8.80
2023-02-07T02:11:15.196Z,7.50
2023-02-07T02:13:59.545Z,7.60
2023-02-07T02:16:42.391Z,8.60
2023-02-07T02:19:18.523Z,8.40
2023-02-07T02:21:55.513Z,8.10
2023-02-07T02:24:43.949Z,8.30
2023-02-07T02:27:40.802Z,8.40
2023-02-07T02:30:32.776Z,7.50
2023-02-07T02:33:32.345Z,9.10
2023-02-07T02:36:22.315Z,8.80
2023-02-07T02:39:22.042Z,8.30
2023-02-07T02:42:12.268Z,8.60
2023-02-07T02:44:46.974Z,9.10
2023-02-07T02:47:13.874Z,9.80
2023-02-07T02:49:40.505Z,9.70
2023-02-07T02:52:07.394Z,9.50
2023-02-07T02:54:38.477Z,10.20
2023-02-07T02:57:37.622Z,9.70
2023-02-07T03:00:24.947Z,10.00
2023-02-07T03:02:57.210Z,10.10
2023-02-07T03:05:45.298Z,10.30
2023-02-07T03:08:34.138Z,9.90
2023-02-07T03:11:11.092Z,10.00
2023-02-07T03:13:47.965Z,11.50
2023-02-07T03:16:42.676Z,10.90
2023-02-07T03:19:13.072Z,10.90
2023-02-07T03:21:45.865Z,10.70
2023-02-07T03:24:45.472Z,10.30
2023-02-07T03:27:14.568Z,10.30
2023-02-07T03:29:42.944Z,10.30
2023-02-07T03:32:10.200Z,9.70
2023-02-07T03:34:50.758Z,10.90
2023-02-07T03:37:26.099Z,10.20
2023-02-07T03:39:53.253Z,9.40
2023-02-07T03:42:37.400Z,10.30
2023-02-07T03:45:05.160Z,10.90
2023-02-07T03:47:32.002Z,10.20
2023-02-07T03:49:58.785Z,9.70
2023-02-07T03:52:25.713Z,10.20
2023-02-07T03:54:52.431Z,10.50
2023-02-07T03:57:19.681Z,10.50
2023-02-07T03:59:46.537Z,9.40
2023-02-07T04:02:13.390Z,9.70
2023-02-07T04:04:40.309Z,10.00
2023-02-07T04:07:07.060Z,11.00
2023-02-07T04:09:33.925Z,10.00
2023-02-07T04:12:00.752Z,9.70
2023-02-07T04:14:27.692Z,10.10
2023-02-07T04:16:54.529Z,9.90
2023-02-07T04:19:21.237Z,10.30
2023-02-07T04:21:48.204Z,9.40
2023-02-07T04:24:15.121Z,10.40
2023-02-07T04:26:41.917Z,9.70
2023-02-07T04:29:08.723Z,12.00
2023-02-07T04:31:37.161Z,10.60
2023-02-07T04:34:05.487Z,11.90
2023-02-07T04:36:32.427Z,11.70
2023-02-07T04:38:59.283Z,12.20
2023-02-07T04:41:26.590Z,11.50
2023-02-07T04:43:53.366Z,10.90
2023-02-07T04:46:20.360Z,11.40
2023-02-07T04:48:48.072Z,8.30
2023-02-07T04:51:15.315Z,10.10
2023-02-07T04:53:45.667Z,10.90
2023-02-07T04:56:12.498Z,10.40
2023-02-07T04:58:43.894Z,9.30
2023-02-07T05:01:10.910Z,8.90
2023-02-07T05:03:40.081Z,8.60
2023-02-07T05:06:06.938Z,8.80
2023-02-07T05:08:35.303Z,8.70
2023-02-07T05:11:04.432Z,8.80
2023-02-07T05:13:31.241Z,7.90
2023-02-07T05:15:58.596Z,8.00
2023-02-07T05:18:25.341Z,7.60
2023-02-07T05:20:52.920Z,8.10
2023-02-07T05:23:19.845Z,8.60
2023-02-07T05:25:49.859Z,8.60
2023-02-07T05:28:16.830Z,8.70
2023-02-07T05:30:43.859Z,9.20
2023-02-07T05:33:11.077Z,8.70
2023-02-07T05:35:45.162Z,8.70
2023-02-07T05:38:13.757Z,8.90
2023-02-07T05:40:41.416Z,8.10
2023-02-07T05:43:08.700Z,8.50
2023-02-07T05:45:35.643Z,9.20
2023-02-07T05:48:02.851Z,8.30
2023-02-07T05:50:29.994Z,8.60
2023-02-07T05:53:06.641Z,8.40
2023-02-07T05:55:33.688Z,8.10
2023-02-07T05:58:00.716Z,8.50
2023-02-07T06:00:27.492Z,8.10
2023-02-07T06:02:54.291Z,9.40
2023-02-07T06:05:22.619Z,10.00
2023-02-07T06:07:50.853Z,8.90
2023-02-07T06:10:17.682Z,9.30
2023-02-07T06:12:44.424Z,10.20
2023-02-07T06:15:11.099Z,9.00
2023-02-07T06:17:38.521Z,9.60
2023-02-07T06:20:05.815Z,7.90
2023-02-07T06:22:32.832Z,8.70
2023-02-07T06:24:59.697Z,8.20
2023-02-07T06:27:26.601Z,8.10
2023-02-07T06:29:54.232Z,7.80
2023-02-07T06:32:20.922Z,8.40
2023-02-07T06:34:47.619Z,8.50
2023-02-07T06:37:16.233Z,7.80
2023-02-07T06:39:42.966Z,8.20
2023-02-07T06:42:09.701Z,8.80
2023-02-07T06:44:37.921Z,9.50
2023-02-07T06:47:04.959Z,10.10
2023-02-07T06:49:33.120Z,8.90
2023-02-07T06:52:00.025Z,8.90
2023-02-07T06:54:26.722Z,8.90
2023-02-07T06:56:55.898Z,8.90
2023-02-07T06:59:25.187Z,9.10
2023-02-07T07:01:52.000Z,9.40
2023-02-07T07:04:19.011Z,9.20
2023-02-07T07:06:46.466Z,9.10
2023-02-07T07:09:13.828Z,9.20
2023-02-07T07:11:42.447Z,9.40
2023-02-07T07:14:10.543Z,8.90
2023-02-07T07:16:37.963Z,10.20
2023-02-07T07:19:06.406Z,9.60
2023-02-07T07:21:34.869Z,10.30
2023-02-07T07:24:03.102Z,9.90
2023-02-07T07:26:46.656Z,10.80
2023-02-07T07:29:17.568Z,9.70
2023-02-07T07:31:45.529Z,11.10
2023-02-07T07:34:13.511Z,11.10
2023-02-07T07:36:41.338Z,10.80
2023-02-07T07:39:08.500Z,12.00
2023-02-07T07:41:35.315Z,12.10
2023-02-07T07:44:02.703Z,11.60
2023-02-07T07:46:29.804Z,10.70
2023-02-07T07:48:56.741Z,11.60
2023-02-07T07:51:24.073Z,12.50
2023-02-07T07:53:53.827Z,11.60
2023-02-07T07:56:20.610Z,11.00
2023-02-07T07:58:49.484Z,11.10
2023-02-07T08:01:16.486Z,10.50
2023-02-07T08:03:43.351Z,10.20
2023-02-07T08:06:11.860Z,10.20
2023-02-07T08:08:38.643Z,8.80
2023-02-07T08:11:06.988Z,9.00
2023-02-07T08:13:34.650Z,9.70
2023-02-07T08:16:02.186Z,9.50
2023-02-07T08:18:29.311Z,8.90
2023-02-07T08:20:56.154Z,8.70
2023-02-07T08:23:23.234Z,8.20
2023-02-07T08:25:50.093Z,8.60
2023-02-07T08:28:17.719Z,8.10
2023-02-07T08:30:46.972Z,8.50
2023-02-07T08:33:14.882Z,7.90
2023-02-07T08:35:41.895Z,9.20
2023-02-07T08:38:09.036Z,9.90
2023-02-07T08:40:36.511Z,10.10
2023-02-07T08:43:06.423Z,10.00
2023-02-07T08:45:34.095Z,9.80
2023-02-07T08:48:01.467Z,9.40
2023-02-07T08:50:28.595Z,9.10
2023-02-07T08:52:55.723Z,8.80
2023-02-07T08:55:22.750Z,7.70
2023-02-07T08:57:49.476Z,7.50
2023-02-07T09:00:19.948Z,6.90
2023-02-07T09:02:46.949Z,6.60
2023-02-07T09:05:14.421Z,7.20
2023-02-07T09:07:41.987Z,7.00
2023-02-07T09:10:10.063Z,6.80
2023-02-07T09:12:37.810Z,7.00
2023-02-07T09:15:05.441Z,7.10
2023-02-07T09:17:33.029Z,7.60
2023-02-07T09:19:59.817Z,7.30
2023-02-07T09:22:26.734Z,7.50
2023-02-07T09:24:53.378Z,7.30
2023-02-07T09:27:20.318Z,6.40
2023-02-07T09:29:46.989Z,7.30
2023-02-07T09:32:14.484Z,7.00
2023-02-07T09:34:41.354Z,7.10
2023-02-07T09:37:08.459Z,6.40
2023-02-07T09:39:40.767Z,5.90
2023-02-07T09:42:33.324Z,6.20
2023-02-07T09:45:06.211Z,5.40
2023-02-07T09:47:34.353Z,5.80
2023-02-07T09:50:04.097Z,5.20
2023-02-07T09:52:47.356Z,5.50
2023-02-07T09:55:17.945Z,4.80
2023-02-07T09:58:15.942Z,4.80
2023-02-07T10:00:59.555Z,4.20
2023-02-07T10:03:28.960Z,4.50
2023-02-07T10:06:17.429Z,4.30
2023-02-07T10:08:46.891Z,4.90
2023-02-07T10:11:59.709Z,4.40
2023-02-07T10:14:42.194Z,4.60
2023-02-07T10:20:02.455Z,5.00
2023-02-07T10:22:44.146Z,4.40
2023-02-07T10:25:22.993Z,4.80
2023-02-07T10:28:12.287Z,5.60
2023-02-07T10:31:00.472Z,5.80
2023-02-07T10:33:31.298Z,5.70
2023-02-07T10:35:58.721Z,5.60
2023-02-07T10:38:30.288Z,5.40
2023-02-07T10:41:04.522Z,5.50
2023-02-07T10:43:32.426Z,5.80
2023-02-07T10:46:10.938Z,5.30
2023-02-07T10:48:38.173Z,5.00
2023-02-07T10:51:20.610Z,5.00
2023-02-07T10:53:55.075Z,4.60
2023-02-07T10:56:23.439Z,4.50
2023-02-07T10:58:50.216Z,5.00
2023-02-07T11:01:22.115Z,4.70
2023-02-07T11:03:49.315Z,4.80
2023-02-07T11:06:23.601Z,4.80
2023-02-07T11:08:50.584Z,4.70
2023-02-07T11:11:36.240Z,5.10
2023-02-07T11:14:04.352Z,4.80
2023-02-07T11:16:36.088Z,4.70
2023-02-07T11:19:04.470Z,4.90
2023-02-07T11:21:41.526Z,5.80
2023-02-07T11:24:28.573Z,5.40
2023-02-07T11:27:02.051Z,4.70
2023-02-07T11:29:30.583Z,4.50
2023-02-07T11:31:59.318Z,4.60
2023-02-07T11:34:36.952Z,4.60
2023-02-07T11:37:17.145Z,4.40
2023-02-07T11:39:44.672Z,4.30
2023-02-07T11:42:32.996Z,3.90
2023-02-07T11:45:03.521Z,4.10
2023-02-07T11:47:30.530Z,4.70
2023-02-07T11:49:58.764Z,4.30
2023-02-07T11:52:25.786Z,3.70
2023-02-07T11:54:54.493Z,4.30
2023-02-07T11:57:22.136Z,4.50
2023-02-07T11:59:49.000Z,4.00
2023-02-07T12:02:23.212Z,4.00
2023-02-07T12:04:50.356Z,4.10
2023-02-07T12:07:27.234Z,4.20
2023-02-07T12:10:02.513Z,4.20
2023-02-07T12:12:44.165Z,4.00
2023-02-07T12:15:20.504Z,4.10
2023-02-07T12:18:12.321Z,3.30
2023-02-07T12:20:53.561Z,3.70
2023-02-07T12:23:41.754Z,4.40
2023-02-07T12:26:32.295Z,4.30
2023-02-07T12:29:18.118Z,4.00
2023-02-07T12:31:56.696Z,4.50
2023-02-07T12:34:34.061Z,3.80
2023-02-07T12:37:19.187Z,4.20
2023-02-07T12:39:52.260Z,4.50
2023-02-07T12:42:22.038Z,4.70
2023-02-07T12:44:51.835Z,4.70
2023-02-07T12:47:33.346Z,4.90
2023-02-07T12:50:12.994Z,4.50
2023-02-07T12:52:49.241Z,4.00
2023-02-07T12:55:40.128Z,4.30
2023-02-07T12:58:30.436Z,4.40
2023-02-07T13:01:03.398Z,4.20
2023-02-07T13:06:27.685Z,4.40
2023-02-07T13:09:10.698Z,4.60
2023-02-07T13:11:44.206Z,4.60
2023-02-07T16:25:49.222Z,9.30
2023-02-07T16:28:16.219Z,8.90
2023-02-07T16:30:42.900Z,8.30
2023-02-07T16:33:12.050Z,8.50
2023-02-07T16:35:38.765Z,7.60
2023-02-07T16:38:05.810Z,8.60
2023-02-07T16:40:33.054Z,8.80
2023-02-07T16:43:00.806Z,7.60
2023-02-07T16:45:28.282Z,10.70
2023-02-07T16:47:56.474Z,8.90
2023-02-07T16:50:25.483Z,8.80
2023-02-07T16:52:54.186Z,9.60
2023-02-07T16:55:21.088Z,10.80
2023-02-07T16:57:48.661Z,10.30
2023-02-07T17:00:20.568Z,10.40
2023-02-07T17:02:50.838Z,10.00
2023-02-07T17:05:18.537Z,8.90
2023-02-07T17:07:47.479Z,9.20
2023-02-07T17:16:37.757Z,8.60
2023-02-07T17:19:20.870Z,8.10
2023-02-07T17:21:48.008Z,8.10
2023-02-07T17:24:15.115Z,8.40
2023-02-07T17:26:45.586Z,9.00
2023-02-07T17:29:14.848Z,9.20
2023-02-07T17:31:42.768Z,8.30
2023-02-07T17:34:09.956Z,8.10
2023-02-07T17:36:37.796Z,9.70
2023-02-07T17:39:06.471Z,7.90
2023-02-07T17:41:33.888Z,8.20
2023-02-07T17:44:01.004Z,8.10
2023-02-07T17:46:27.951Z,7.20
2023-02-07T17:48:54.749Z,7.40
2023-02-07T17:51:23.678Z,8.00
2023-02-07T17:53:50.872Z,8.50
2023-02-07T17:56:23.872Z,8.20
2023-02-07T17:58:51.783Z,7.60
2023-02-07T18:01:18.926Z,8.60
2023-02-07T18:03:46.801Z,8.00
2023-02-07T18:06:17.739Z,8.80
2023-02-07T18:08:44.839Z,8.80
2023-02-07T18:11:13.711Z,8.60
2023-02-07T18:13:42.971Z,8.10
2023-02-07T18:16:14.435Z,7.50
2023-02-07T18:18:46.382Z,8.10
2023-02-07T18:21:13.815Z,7.70
2023-02-07T18:23:42.521Z,7.70
2023-02-07T18:26:14.466Z,8.20
2023-02-07T18:28:42.356Z,7.50
2023-02-07T18:31:10.982Z,7.50
2023-02-07T18:33:38.088Z,7.80
2023-02-07T18:36:06.063Z,7.50
2023-02-07T18:38:32.775Z,8.10
2023-02-07T18:41:00.069Z,7.40
2023-02-07T18:43:26.787Z,8.50
2023-02-07T18:45:53.880Z,7.80
2023-02-07T18:48:21.090Z,7.30
2023-02-07T18:50:48.032Z,8.00
2023-02-07T18:53:15.281Z,7.10
2023-02-07T18:55:42.141Z,7.90
2023-02-07T18:58:09.178Z,7.90
2023-02-07T19:00:36.398Z,8.00
2023-02-07T19:03:03.463Z,7.20
2023-02-07T19:05:30.468Z,8.70
2023-02-07T19:07:57.356Z,8.60
2023-02-07T19:10:24.510Z,8.40
2023-02-07T19:12:51.555Z,8.20
2023-02-07T19:15:21.519Z,8.60
2023-02-07T19:17:48.944Z,8.80
2023-02-07T19:20:15.771Z,9.10
2023-02-07T19:22:43.489Z,8.70
2023-02-07T19:25:12.936Z,8.90
2023-02-07T19:27:39.978Z,8.50
2023-02-07T19:30:07.742Z,9.00
2023-02-07T19:32:35.655Z,9.90
2023-02-07T19:35:02.760Z,8.30
2023-02-07T19:37:29.993Z,8.80
2023-02-07T19:39:57.066Z,9.20
2023-02-07T19:42:24.312Z,9.90
2023-02-07T19:44:51.062Z,9.20
2023-02-07T19:47:18.702Z,9.90
2023-02-07T19:49:51.126Z,9.90
2023-02-07T19:52:19.051Z,7.70
2023-02-07T19:54:46.000Z,9.30
2023-02-07T19:57:12.949Z,9.40
2023-02-07T19:59:39.865Z,11.00
2023-02-07T20:02:06.841Z,8.20
2023-02-07T20:04:33.877Z,9.40
2023-02-07T20:07:02.385Z,9.40
2023-02-07T20:09:29.307Z,8.70
2023-02-07T20:11:56.272Z,9.00
2023-02-07T20:14:23.192Z,9.10
2023-02-07T20:16:50.238Z,9.10
2023-02-07T20:19:17.085Z,9.00
2023-02-07T20:21:43.921Z,9.60
2023-02-07T20:24:10.674Z,9.50
2023-02-07T20:26:39.862Z,9.00
2023-02-07T20:29:08.983Z,9.80
2023-02-07T20:31:36.895Z,10.40
2023-02-07T20:34:03.661Z,9.90
2023-02-07T20:36:31.568Z,9.10
2023-02-07T20:39:00.624Z,8.70
2023-02-07T20:41:31.157Z,8.50
2023-02-07T20:44:14.486Z,9.20
2023-02-07T20:46:41.961Z,8.90
2023-02-07T20:49:11.277Z,10.10
2023-02-07T20:51:39.307Z,10.20
2023-02-07T20:54:06.759Z,9.00
2023-02-07T20:56:34.441Z,9.80
2023-02-07T20:59:01.267Z,9.70
2023-02-07T21:01:29.671Z,9.90
2023-02-07T21:03:58.494Z,10.00
2023-02-07T21:06:25.893Z,9.40
2023-02-07T21:09:00.289Z,8.80
2023-02-07T21:11:33.399Z,9.90
2023-02-07T21:14:01.468Z,9.70
2023-02-07T21:16:30.211Z,8.70
2023-02-07T21:18:57.614Z,9.40
2023-02-07T21:21:24.245Z,9.40
2023-02-07T21:23:51.198Z,9.40
2023-02-07T21:26:19.696Z,9.30
2023-02-07T21:28:46.715Z,10.20
2023-02-07T21:31:20.404Z,10.10
2023-02-07T21:33:49.090Z,10.10
2023-02-07T21:36:17.821Z,9.60
2023-02-07T21:38:46.677Z,9.30
2023-02-07T21:41:14.865Z,9.20
2023-02-07T21:43:41.636Z,9.60
2023-02-07T21:46:10.950Z,8.50
2023-02-07T21:48:38.962Z,8.40
2023-02-07T21:51:10.208Z,8.20
2023-02-07T21:53:37.254Z,10.20
2023-02-07T21:56:06.600Z,9.40
2023-02-07T21:58:33.704Z,9.70
2023-02-07T22:01:17.528Z,10.40
2023-02-07T22:03:46.231Z,11.10
2023-02-07T22:06:13.816Z,10.50
2023-02-07T22:08:47.565Z,9.60
2023-02-07T22:11:14.642Z,10.80
2023-02-07T22:13:42.522Z,9.50
